createdAt,value
2023-02-24T00:02:32.994Z,79.23
2023-02-24T00:05:11.419Z,79.20
2023-02-24T00:07:47.779Z,79.15
2023-02-24T00:10:24.392Z,79.13
2023-02-24T00:13:00.683Z,79.19
2023-02-24T00:15:37.085Z,79.20
2023-02-24T00:18:13.720Z,79.17
2023-02-24T00:20:50.044Z,79.17
2023-02-24T00:23:26.692Z,79.25
2023-02-24T00:26:07.867Z,79.30
2023-02-24T00:28:45.531Z,79.30
2023-02-24T00:31:24.383Z,79.32
2023-02-24T00:34:02.612Z,79.23
2023-02-24T00:36:40.221Z,79.10
2023-02-24T00:39:17.379Z,79.07
2023-02-24T00:41:53.947Z,79.00
2023-02-24T00:44:30.219Z,78.98
2023-02-24T00:47:12.120Z,78.93
2023-02-24T00:49:50.524Z,78.96
2023-02-24T00:52:28.009Z,78.99
2023-02-24T00:55:14.137Z,79.00
2023-02-24T00:57:51.640Z,79.02
2023-02-24T01:00:30.298Z,79.12
2023-02-24T01:03:07.182Z,79.30
2023-02-24T01:05:44.127Z,79.30
2023-02-24T01:08:23.130Z,79.26
2023-02-24T01:11:21.827Z,79.31
2023-02-24T01:13:58.950Z,79.42
2023-02-24T01:16:36.225Z,79.40
2023-02-24T01:19:13.282Z,79.40
2023-02-24T01:21:55.220Z,79.46
2023-02-24T01:24:35.167Z,79.40
2023-02-24T01:27:14.032Z,79.46
2023-02-24T01:29:51.388Z,79.41
2023-02-24T01:32:29.120Z,79.40
2023-02-24T01:35:07.617Z,79.35
2023-02-24T01:37:45.472Z,79.40
2023-02-24T01:40:22.570Z,79.41
2023-02-24T01:42:59.002Z,79.46
2023-02-24T01:45:36.937Z,79.51
2023-02-24T01:48:17.329Z,79.59
2023-02-24T01:50:55.228Z,79.59
2023-02-24T01:53:32.098Z,79.65
2023-02-24T01:56:13.821Z,79.80
2023-02-24T01:58:51.130Z,79.80
2023-02-24T02:01:29.098Z,79.82
2023-02-24T02:04:18.323Z,79.86
2023-02-24T02:06:54.883Z,79.81
2023-02-24T02:09:32.460Z,79.79
2023-02-24T02:12:09.610Z,79.77
2023-02-24T02:14:52.501Z,79.78
2023-02-24T02:17:41.070Z,79.72
2023-02-24T02:21:12.238Z,79.76
2023-02-24T02:24:05.571Z,79.74
2023-02-24T02:28:03.107Z,79.79
2023-02-24T02:31:37.454Z,79.70
2023-02-24T02:34:47.744Z,79.90
2023-02-24T02:37:35.269Z,80.01
2023-02-24T02:40:21.256Z,80.00
2023-02-24T02:43:10.571Z,80.00
2023-02-24T02:45:57.758Z,79.96
2023-02-24T02:48:41.280Z,79.88
2023-02-24T02:51:26.253Z,79.89
2023-02-24T02:54:12.589Z,79.76
2023-02-24T02:57:01.630Z,79.80
2023-02-24T02:59:49.366Z,79.76
2023-02-24T03:02:40.173Z,79.80
2023-02-24T03:05:22.578Z,79.79
2023-02-24T03:08:04.860Z,79.85
2023-02-24T03:10:45.656Z,79.81
2023-02-24T03:13:28.160Z,79.81
2023-02-24T03:16:09.014Z,79.81
2023-02-24T03:18:53.955Z,79.82
2023-02-24T03:21:38.270Z,79.80
2023-02-24T03:24:17.264Z,79.90
2023-02-24T03:27:02.164Z,79.88
2023-02-24T03:29:48.838Z,79.80
2023-02-24T03:32:33.832Z,79.87
2023-02-24T03:35:21.696Z,80.00
2023-02-24T03:38:00.626Z,80.05
2023-02-24T03:40:40.314Z,79.94
2023-02-24T03:43:26.152Z,79.89
2023-02-24T03:46:06.907Z,79.84
2023-02-24T03:48:55.781Z,79.71
2023-02-24T03:51:34.069Z,79.70
2023-02-24T03:54:31.163Z,79.80
2023-02-24T03:57:35.826Z,79.80
2023-02-24T04:00:26.111Z,79.80
2023-02-24T04:03:27.320Z,79.73
2023-02-24T04:06:23.616Z,79.71
2023-02-24T04:09:10.444Z,79.76
2023-02-24T04:12:05.655Z,79.87
2023-02-24T04:14:53.096Z,79.94
2023-02-24T04:17:39.787Z,80.07
2023-02-24T04:20:28.052Z,80.24
2023-02-24T04:23:13.461Z,80.45
2023-02-24T04:25:56.355Z,80.55
2023-02-24T04:28:34.893Z,80.95
2023-02-24T04:31:18.747Z,81.34
2023-02-24T04:33:55.336Z,81.61
2023-02-24T04:36:38.537Z,81.88
2023-02-24T04:39:18.911Z,82.12
2023-02-24T04:41:57.876Z,82.23
2023-02-24T04:44:34.771Z,82.34
2023-02-24T04:47:12.704Z,82.41
2023-02-24T04:49:48.985Z,82.49
2023-02-24T04:52:25.344Z,82.59
2023-02-24T04:55:01.672Z,82.60
2023-02-24T04:57:40.747Z,82.60
2023-02-24T05:00:23.140Z,82.54
2023-02-24T05:03:01.888Z,82.50
2023-02-24T05:05:38.399Z,82.48
2023-02-24T05:08:15.941Z,82.44
2023-02-24T05:10:52.609Z,82.40
2023-02-24T05:13:32.052Z,82.46
2023-02-24T05:16:13.857Z,82.47
2023-02-24T05:18:50.144Z,82.46
2023-02-24T05:21:38.641Z,82.50
2023-02-24T05:24:17.362Z,82.56
2023-02-24T05:26:58.302Z,82.60
2023-02-24T05:29:37.013Z,82.60
2023-02-24T05:32:16.809Z,82.60
2023-02-24T05:34:53.577Z,82.60
2023-02-24T05:37:31.252Z,82.62
2023-02-24T05:40:10.620Z,82.66
2023-02-24T05:42:47.339Z,82.73
2023-02-24T05:45:25.823Z,82.75
2023-02-24T05:48:05.910Z,82.80
2023-02-24T05:50:46.324Z,82.80
2023-02-24T05:53:23.787Z,82.80
2023-02-24T05:56:05.809Z,82.80
2023-02-24T05:58:45.246Z,82.94
2023-02-24T06:01:22.013Z,83.03
2023-02-24T06:04:06.044Z,83.05
2023-02-24T06:06:45.730Z,83.08
2023-02-24T06:09:24.277Z,83.11
2023-02-24T06:12:00.582Z,83.11
2023-02-24T06:14:36.953Z,83.10
2023-02-24T06:17:15.188Z,83.04
2023-02-24T06:19:54.630Z,83.08
2023-02-24T06:22:33.508Z,83.12
2023-02-24T06:25:12.534Z,83.11
2023-02-24T06:27:53.218Z,83.13
2023-02-24T06:30:32.970Z,83.10
2023-02-24T06:33:10.740Z,83.15
2023-02-24T06:35:47.438Z,83.19
2023-02-24T06:38:23.874Z,83.16
2023-02-24T06:41:04.498Z,83.13
2023-02-24T06:43:43.258Z,83.00
2023-02-24T06:46:20.669Z,82.91
2023-02-24T06:48:58.352Z,82.78
2023-02-24T06:51:34.906Z,82.67
2023-02-24T06:54:12.734Z,82.55
2023-02-24T06:56:49.281Z,82.36
2023-02-24T06:59:28.777Z,82.22
2023-02-24T07:02:08.035Z,82.09
2023-02-24T07:04:44.997Z,82.00
2023-02-24T07:07:22.682Z,81.93
2023-02-24T07:09:59.002Z,81.89
2023-02-24T07:12:36.178Z,81.78
2023-02-24T07:15:16.243Z,81.65
2023-02-24T07:17:54.746Z,81.51
2023-02-24T07:20:35.136Z,81.37
2023-02-24T07:23:11.950Z,81.35
2023-02-24T07:25:50.281Z,81.29
2023-02-24T07:28:27.834Z,81.20
2023-02-24T07:31:08.619Z,81.20
2023-02-24T07:33:47.797Z,81.07
2023-02-24T07:36:24.723Z,81.02
2023-02-24T07:39:03.648Z,80.90
2023-02-24T07:41:45.617Z,80.84
2023-02-24T07:44:24.899Z,80.78
2023-02-24T07:47:07.894Z,80.59
2023-02-24T07:49:45.619Z,80.54
2023-02-24T07:52:22.818Z,80.43
2023-02-24T07:55:00.389Z,80.25
2023-02-24T07:57:37.777Z,79.98
2023-02-24T08:00:19.736Z,79.93
2023-02-24T08:03:00.650Z,79.76
2023-02-24T08:05:38.806Z,79.56
2023-02-24T08:08:21.104Z,79.37
2023-02-24T08:11:04.241Z,79.13
2023-02-24T08:13:40.988Z,78.84
2023-02-24T08:16:17.885Z,78.79
2023-02-24T08:18:57.905Z,78.68
2023-02-24T08:21:38.377Z,78.76
2023-02-24T08:24:20.305Z,78.58
2023-02-24T08:27:05.312Z,78.58
2023-02-24T08:29:58.324Z,78.44
2023-02-24T08:32:43.952Z,78.08
2023-02-24T08:35:25.961Z,77.66
2023-02-24T08:38:05.620Z,77.46
2023-02-24T08:40:55.151Z,77.24
2023-02-24T08:43:42.206Z,76.13
2023-02-24T08:46:32.916Z,75.69
2023-02-24T08:49:11.543Z,75.84
2023-02-24T08:51:52.953Z,75.49
2023-02-24T08:54:32.150Z,75.21
2023-02-24T08:57:09.343Z,74.65
2023-02-24T08:59:50.314Z,74.25
2023-02-24T09:02:29.437Z,74.33
2023-02-24T09:05:14.010Z,74.10
2023-02-24T09:07:54.909Z,73.88
2023-02-24T09:10:32.954Z,73.58
2023-02-24T09:13:09.208Z,73.44
2023-02-24T09:15:46.523Z,73.51
2023-02-24T09:18:30.343Z,73.79
2023-02-24T09:21:33.068Z,73.54
2023-02-24T09:24:13.099Z,73.77
2023-02-24T09:26:58.744Z,73.63
2023-02-24T09:29:35.625Z,73.57
2023-02-24T09:32:15.019Z,73.39
2023-02-24T09:34:51.507Z,73.22
2023-02-24T09:37:28.146Z,73.41
2023-02-24T09:40:22.388Z,73.28
2023-02-24T09:42:59.746Z,73.06
2023-02-24T09:45:36.939Z,73.25
2023-02-24T09:48:30.918Z,73.25
2023-02-24T09:51:10.659Z,72.89
2023-02-24T09:53:52.861Z,72.46
2023-02-24T09:56:43.007Z,72.59
2023-02-24T09:59:34.958Z,72.25
2023-02-24T10:02:44.292Z,72.38
2023-02-24T10:05:38.537Z,72.10
2023-02-24T10:08:32.990Z,71.77
2023-02-24T10:11:10.992Z,71.77
2023-02-24T10:14:03.392Z,71.64
2023-02-24T10:17:10.638Z,71.20
2023-02-24T10:19:56.636Z,71.62
2023-02-24T10:22:53.621Z,71.65
2023-02-24T10:25:54.244Z,71.60
2023-02-24T10:28:46.215Z,71.48
2023-02-24T10:31:30.580Z,71.76
2023-02-24T10:34:13.937Z,71.62
2023-02-24T10:36:50.696Z,71.73
2023-02-24T10:39:33.377Z,71.90
2023-02-24T10:42:17.608Z,71.48
2023-02-24T10:45:17.321Z,70.77
2023-02-24T10:48:00.295Z,70.65
2023-02-24T10:50:56.217Z,70.09
2023-02-24T10:53:37.608Z,69.79
2023-02-24T10:56:41.999Z,69.56
2023-02-24T10:59:41.951Z,68.87
2023-02-24T11:02:33.028Z,68.79
2023-02-24T11:05:38.546Z,68.94
2023-02-24T11:08:40.197Z,68.76
2023-02-24T11:11:29.967Z,68.79
2023-02-24T11:14:34.776Z,68.80
2023-02-24T11:17:27.229Z,68.29
2023-02-24T11:20:11.135Z,67.54
2023-02-24T11:22:52.134Z,67.68
2023-02-24T11:25:40.564Z,67.90
2023-02-24T11:28:51.628Z,67.99
2023-02-24T11:31:56.061Z,68.17
2023-02-24T11:34:49.600Z,68.29
2023-02-24T11:37:41.869Z,68.27
2023-02-24T11:40:26.463Z,68.34
2023-02-24T11:43:13.884Z,68.29
2023-02-24T11:45:56.429Z,68.47
2023-02-24T11:48:40.623Z,68.33
2023-02-24T11:51:25.534Z,67.73
2023-02-24T11:54:10.137Z,67.47
2023-02-24T11:56:51.285Z,67.18
2023-02-24T11:59:39.501Z,66.44
2023-02-24T12:02:31.423Z,66.08
2023-02-24T12:05:18.124Z,66.11
2023-02-24T12:08:02.231Z,66.09
2023-02-24T12:10:47.729Z,65.75
2023-02-24T12:13:40.444Z,65.59
2023-02-24T12:16:25.586Z,65.19
2023-02-24T12:19:18.595Z,64.82
2023-02-24T12:22:05.756Z,64.66
2023-02-24T12:24:50.012Z,64.95
2023-02-24T12:27:46.631Z,65.26
2023-02-24T12:30:57.652Z,64.94
2023-02-24T12:33:53.448Z,64.98
2023-02-24T12:37:05.618Z,65.03
2023-02-24T12:39:51.551Z,65.34
2023-02-24T12:42:40.217Z,65.64
2023-02-24T12:45:29.070Z,65.45
2023-02-24T12:48:33.574Z,65.32
2023-02-24T12:51:19.302Z,65.60
2023-02-24T12:54:06.588Z,65.73
2023-02-24T12:57:01.401Z,65.39
2023-02-24T12:59:42.566Z,65.24
2023-02-24T13:02:36.694Z,65.43
2023-02-24T13:05:25.961Z,65.56
2023-02-24T13:08:31.904Z,65.63
2023-02-24T13:11:21.179Z,65.29
2023-02-24T13:14:06.121Z,65.57
2023-02-24T13:16:43.034Z,65.92
2023-02-24T13:19:33.273Z,66.40
2023-02-24T13:22:29.716Z,67.20
2023-02-24T13:25:28.850Z,68.21
2023-02-24T13:28:24.812Z,69.87
2023-02-24T13:31:12.587Z,71.09
2023-02-24T13:33:49.574Z,71.89
2023-02-24T13:36:27.654Z,72.27
2023-02-24T13:39:27.245Z,72.68
2023-02-24T13:42:27.639Z,73.17
2023-02-24T13:45:23.242Z,73.12
2023-02-24T13:48:37.849Z,73.60
2023-02-24T13:52:05.083Z,72.90
2023-02-24T13:55:15.440Z,71.94
2023-02-24T13:58:19.025Z,71.52
2023-02-24T14:01:10.879Z,70.88
2023-02-24T14:04:04.723Z,70.68
2023-02-24T14:06:47.550Z,70.72
2023-02-24T14:09:31.528Z,71.08
2023-02-24T14:12:19.873Z,70.68
2023-02-24T14:14:57.810Z,70.53
2023-02-24T14:17:38.852Z,70.63
2023-02-24T14:20:25.052Z,70.74
2023-02-24T14:23:04.033Z,70.60
2023-02-24T14:25:43.992Z,70.67
2023-02-24T14:28:26.618Z,70.91
2023-02-24T14:31:08.938Z,70.82
2023-02-24T14:33:47.960Z,70.52
2023-02-24T14:36:30.513Z,70.35
2023-02-24T14:39:18.423Z,70.40
2023-02-24T14:42:12.584Z,70.72
2023-02-24T14:44:52.613Z,70.68
2023-02-24T14:47:33.566Z,70.39
2023-02-24T14:50:19.399Z,70.32
2023-02-24T14:53:00.904Z,70.12
2023-02-24T14:55:44.066Z,70.00
2023-02-24T14:58:29.391Z,69.60
2023-02-24T15:01:16.843Z,68.48
2023-02-24T15:03:58.724Z,67.63
2023-02-24T15:06:41.055Z,67.32
2023-02-24T15:09:23.775Z,67.18
2023-02-24T15:12:00.788Z,66.89
2023-02-24T15:14:37.532Z,67.06
2023-02-24T15:17:23.642Z,67.09
2023-02-24T15:20:00.573Z,67.30
2023-02-24T15:22:50.147Z,67.41
2023-02-24T15:25:42.333Z,67.22
2023-02-24T15:28:32.364Z,67.10
2023-02-24T15:31:18.101Z,67.29
2023-02-24T15:34:03.830Z,67.79
2023-02-24T15:36:41.229Z,68.35
2023-02-24T15:39:28.958Z,69.15
2023-02-24T15:42:28.406Z,69.91
2023-02-24T15:45:08.393Z,70.50
2023-02-24T15:47:55.628Z,71.17
2023-02-24T15:50:34.768Z,72.40
2023-02-24T15:53:13.166Z,73.34
2023-02-24T15:55:50.246Z,74.02
2023-02-24T15:58:27.114Z,74.66
2023-02-24T16:01:03.647Z,75.24
2023-02-24T16:03:40.342Z,75.63
2023-02-24T16:06:26.496Z,75.87
2023-02-24T16:09:05.434Z,76.27
2023-02-24T16:11:48.187Z,76.36
2023-02-24T16:14:24.753Z,76.46
2023-02-24T16:17:03.575Z,76.65
2023-02-24T16:19:40.158Z,76.59
2023-02-24T16:22:17.113Z,76.63
2023-02-24T16:24:53.596Z,76.70
2023-02-24T16:27:31.548Z,76.80
2023-02-24T16:30:16.463Z,76.77
2023-02-24T16:32:53.252Z,76.90
2023-02-24T16:35:31.075Z,77.07
2023-02-24T16:38:08.129Z,77.10
2023-02-24T16:40:48.611Z,77.13
2023-02-24T16:43:26.210Z,77.29
2023-02-24T16:46:12.284Z,77.47
2023-02-24T16:48:51.210Z,77.54
2023-02-24T16:51:29.155Z,77.65
2023-02-24T16:54:06.027Z,77.79
2023-02-24T16:56:42.636Z,77.86
2023-02-24T16:59:19.656Z,78.05
2023-02-24T17:01:57.269Z,78.26
2023-02-24T17:04:34.477Z,78.42
2023-02-24T17:07:14.649Z,78.56
2023-02-24T17:09:51.554Z,78.71
2023-02-24T17:12:28.202Z,78.95
2023-02-24T17:15:05.674Z,79.09
2023-02-24T17:17:42.472Z,79.10
2023-02-24T17:20:22.485Z,79.23
2023-02-24T17:22:59.845Z,79.40
2023-02-24T17:25:37.308Z,79.60
2023-02-24T17:28:15.180Z,79.81
2023-02-24T17:30:52.434Z,79.98
2023-02-24T17:33:29.796Z,80.00
2023-02-24T17:36:07.325Z,80.08
2023-02-24T17:38:44.151Z,80.22
2023-02-24T17:41:20.930Z,80.31
2023-02-24T17:43:58.621Z,80.40
2023-02-24T17:46:36.287Z,80.45
2023-02-24T17:49:12.883Z,80.51
2023-02-24T17:51:49.354Z,80.59
2023-02-24T17:54:26.025Z,80.54
2023-02-24T17:57:02.501Z,80.42
2023-02-24T17:59:39.529Z,80.36
2023-02-24T18:02:18.758Z,80.25
2023-02-24T18:04:56.988Z,80.20
2023-02-24T18:07:33.482Z,80.26
2023-02-24T18:10:13.299Z,80.29
2023-02-24T18:12:49.675Z,80.10
2023-02-24T18:15:26.169Z,80.22
2023-02-24T18:18:02.586Z,80.22
2023-02-24T18:20:42.167Z,80.38
2023-02-24T18:23:18.684Z,80.42
2023-02-24T18:25:55.206Z,80.48
2023-02-24T18:28:31.604Z,80.47
2023-02-24T18:31:15.705Z,80.40
2023-02-24T18:33:52.802Z,80.36
2023-02-24T18:36:30.162Z,80.30
2023-02-24T18:39:09.106Z,80.30
2023-02-24T18:41:46.329Z,80.26
2023-02-24T18:44:22.784Z,80.17
2023-02-24T18:46:59.420Z,80.07
2023-02-24T18:49:36.019Z,80.01
2023-02-24T18:52:13.188Z,79.97
2023-02-24T18:54:50.637Z,79.85
2023-02-24T18:57:27.132Z,79.80
2023-02-24T19:00:04.930Z,79.78
2023-02-24T19:02:42.083Z,79.76
2023-02-24T19:05:20.618Z,79.80
2023-02-24T19:07:57.636Z,79.81
2023-02-24T19:10:35.325Z,79.77
2023-02-24T19:13:12.693Z,79.64
2023-02-24T19:15:49.163Z,79.48
2023-02-24T19:18:25.773Z,79.44
2023-02-24T19:21:02.371Z,79.53
2023-02-24T19:23:39.631Z,79.61
2023-02-24T19:26:25.879Z,79.54
2023-02-24T19:29:03.963Z,79.35
2023-02-24T19:31:41.761Z,79.43
2023-02-24T19:34:19.022Z,79.58
2023-02-24T19:36:55.672Z,79.59
2023-02-24T19:39:32.255Z,79.65
2023-02-24T19:42:09.318Z,79.79
2023-02-24T19:44:46.013Z,79.81
2023-02-24T19:47:22.991Z,79.92
2023-02-24T19:49:59.755Z,80.05
2023-02-24T19:52:36.559Z,80.19
2023-02-24T19:55:15.562Z,80.24
2023-02-24T19:57:55.994Z,80.36
2023-02-24T20:00:33.109Z,80.54
2023-02-24T20:03:10.579Z,80.61
2023-02-24T20:05:47.171Z,80.69
2023-02-24T20:08:23.766Z,80.77
2023-02-24T20:11:07.933Z,80.78
2023-02-24T20:13:45.670Z,80.88
2023-02-24T20:16:27.362Z,80.99
2023-02-24T20:19:04.398Z,81.08
2023-02-24T20:21:41.594Z,81.14
2023-02-24T20:24:20.848Z,81.20
2023-02-24T20:26:57.547Z,81.20
2023-02-24T20:29:35.609Z,81.13
2023-02-24T20:32:13.416Z,81.00
2023-02-24T20:34:50.392Z,80.99
2023-02-24T20:37:27.029Z,80.99
2023-02-24T20:40:07.130Z,81.07
2023-02-24T20:42:43.530Z,81.20
2023-02-24T20:45:20.896Z,81.27
2023-02-24T20:48:00.441Z,81.31
2023-02-24T20:50:46.430Z,81.30
2023-02-24T20:53:23.030Z,81.25
2023-02-24T20:56:07.398Z,81.21
2023-02-24T20:58:45.512Z,81.24
2023-02-24T21:01:23.677Z,81.22
2023-02-24T21:04:00.760Z,81.17
2023-02-24T21:06:38.799Z,81.10
2023-02-24T21:09:15.142Z,81.05
2023-02-24T21:11:52.084Z,80.93
2023-02-24T21:14:28.680Z,80.73
2023-02-24T21:17:05.093Z,80.72
2023-02-24T21:19:43.283Z,80.91
2023-02-24T21:22:19.702Z,80.90
2023-02-24T21:24:56.369Z,81.01
2023-02-24T21:27:32.839Z,81.10
2023-02-24T21:30:12.526Z,81.10
2023-02-24T21:32:49.560Z,81.20
2023-02-24T21:35:26.127Z,81.29
2023-02-24T21:38:02.492Z,81.30
2023-02-24T21:40:45.218Z,81.23
2023-02-24T21:43:22.692Z,81.03
2023-02-24T21:46:02.869Z,80.70
2023-02-24T21:48:40.891Z,80.47
2023-02-24T21:51:18.322Z,80.11
2023-02-24T21:53:56.895Z,79.71
2023-02-24T21:56:34.187Z,79.39
2023-02-24T21:59:13.149Z,79.06
2023-02-24T22:01:50.764Z,78.96
2023-02-24T22:04:28.241Z,78.62
2023-02-24T22:07:04.711Z,78.30
2023-02-24T22:09:41.596Z,78.15
2023-02-24T22:12:18.159Z,78.06
2023-02-24T22:14:54.962Z,77.95
2023-02-24T22:17:31.280Z,77.71
2023-02-24T22:20:11.543Z,77.49
2023-02-24T22:22:48.337Z,77.28
2023-02-24T22:25:24.816Z,77.11
2023-02-24T22:28:01.202Z,76.77
2023-02-24T22:30:38.174Z,76.66
2023-02-24T22:33:14.594Z,76.24
2023-02-24T22:35:51.107Z,75.76
2023-02-24T22:38:27.469Z,75.61
2023-02-24T22:41:08.365Z,75.83
2023-02-24T22:43:44.817Z,76.20
2023-02-24T22:46:27.010Z,76.40
2023-02-24T22:49:04.482Z,76.34
2023-02-24T22:51:42.543Z,76.48
2023-02-24T22:54:19.589Z,76.60
2023-02-24T22:56:58.619Z,76.25
2023-02-24T22:59:34.914Z,76.15
2023-02-24T23:02:11.233Z,76.01
2023-02-24T23:04:47.484Z,75.77
2023-02-24T23:07:24.177Z,75.74
2023-02-24T23:10:00.881Z,75.77
2023-02-24T23:12:37.732Z,76.08
2023-02-24T23:15:15.835Z,76.42
2023-02-24T23:17:53.118Z,76.39
2023-02-24T23:20:29.382Z,76.39
2023-02-24T23:23:05.850Z,76.39
2023-02-24T23:25:51.305Z,76.40
2023-02-24T23:28:28.400Z,76.44
2023-02-24T23:31:05.607Z,76.42
2023-02-24T23:33:42.163Z,76.48
2023-02-24T23:36:19.141Z,76.53
2023-02-24T23:38:57.784Z,76.66
2023-02-24T23:41:34.554Z,76.77
2023-02-24T23:44:12.435Z,76.80
2023-02-24T23:46:49.778Z,76.99
2023-02-24T23:49:36.099Z,77.11
2023-02-24T23:52:19.430Z,77.21
2023-02-24T23:54:55.816Z,77.05
2023-02-24T23:57:33.004Z,76.80
